Ingelmunster, Belgium
Current Conditions -  °F | °C
As of 3:00 PM on Monday 20 Oct 2014 (Local Time) from LFQQ Reporting Station
Scattered Clouds Scattered Clouds  
Wind Chill: 64°   Ceiling: Unl
Heat Index: 64°   Visibility: 6mi
Dew Point: 54°   Wind: 14mph
Humidity: 68%   Direction: 240°WSW
Pressure: 30.03"   Gusts: NA
Location:  50.92°N, 3.26°E
Report Text: LFQQ 201300Z 24012KT 200V270 9999 SCT027 18/12 Q1017 NOSIG
Loading
Personal Weather Stations






























Interactive Weather Map New forecast layout! Learn more

10-Day Weather Forecast

Advertisements
Track Severe Weather on mobile